createdAt,value
2024-03-12T00:03:01.497Z,1.70
2024-03-12T00:07:03.119Z,1.30
2024-03-12T00:11:07.600Z,1.50
2024-03-12T00:15:09.228Z,1.13
2024-03-12T00:19:11.107Z,1.25
2024-03-12T00:23:13.088Z,1.55
2024-03-12T00:27:14.661Z,1.55
2024-03-12T00:31:17.640Z,1.50
2024-03-12T00:35:19.199Z,1.58
2024-03-12T00:39:23.133Z,1.20
2024-03-12T00:43:24.619Z,1.42
2024-03-12T00:47:26.253Z,1.60
2024-03-12T00:51:30.704Z,1.38
2024-03-12T00:55:32.796Z,1.50
2024-03-12T00:59:34.337Z,1.70
2024-03-12T01:03:35.833Z,1.40
2024-03-12T01:07:39.433Z,1.20
2024-03-12T01:11:41.415Z,1.50
2024-03-12T01:15:42.898Z,1.40
2024-03-12T01:19:44.357Z,1.67
2024-03-12T01:23:45.837Z,1.30
2024-03-12T01:27:47.910Z,1.02
2024-03-12T01:31:51.842Z,1.35
2024-03-12T01:36:06.329Z,1.73
2024-03-12T01:40:20.972Z,1.25
2024-03-12T01:44:23.375Z,1.27
2024-03-12T01:48:25.480Z,1.33
2024-03-12T01:52:27.005Z,1.55
2024-03-12T01:56:28.463Z,1.35
2024-03-12T02:00:33.142Z,1.27
2024-03-12T02:04:35.266Z,1.13
2024-03-12T02:08:36.943Z,1.83
2024-03-12T02:12:38.559Z,1.35
2024-03-12T02:16:40.139Z,1.20
2024-03-12T02:20:41.822Z,1.30
2024-03-12T02:24:43.334Z,1.30
2024-03-12T02:28:45.196Z,1.27
2024-03-12T02:32:48.356Z,1.15
2024-03-12T02:36:50.219Z,1.25
2024-03-12T02:40:51.682Z,1.10
2024-03-12T02:44:53.167Z,1.20
2024-03-12T02:48:55.234Z,1.13
2024-03-12T02:52:56.771Z,1.10
2024-03-12T02:56:58.309Z,1.15
2024-03-12T03:01:00.027Z,1.20
2024-03-12T03:05:01.550Z,1.30
2024-03-12T03:09:10.724Z,1.20
2024-03-12T03:13:12.483Z,1.67
2024-03-12T03:17:14.095Z,1.10
2024-03-12T03:21:15.553Z,1.17
2024-03-12T03:25:17.224Z,1.27
2024-03-12T03:29:22.399Z,1.50
2024-03-12T03:33:24.083Z,1.48
2024-03-12T03:37:31.878Z,1.52
2024-03-12T03:41:33.348Z,1.30
2024-03-12T03:45:34.917Z,1.17
2024-03-12T03:49:36.425Z,1.00
2024-03-12T03:53:37.903Z,1.30
2024-03-12T03:57:39.528Z,1.35
2024-03-12T04:01:41.051Z,1.30
2024-03-12T04:05:42.730Z,1.15
2024-03-12T04:09:44.759Z,1.27
2024-03-12T04:13:46.253Z,1.73
2024-03-12T04:17:47.914Z,1.38
2024-03-12T04:21:49.478Z,1.42
2024-03-12T04:25:51.467Z,1.52
2024-03-12T04:29:53.004Z,1.60
2024-03-12T04:33:54.823Z,1.40
2024-03-12T04:37:56.531Z,1.50
2024-03-12T04:42:03.353Z,1.65
2024-03-12T04:46:05.052Z,1.60
2024-03-12T04:50:09.068Z,1.48
2024-03-12T04:54:10.816Z,1.30
2024-03-12T04:58:12.327Z,1.75
2024-03-12T05:02:13.886Z,1.85
2024-03-12T05:06:15.421Z,1.73
2024-03-12T05:10:18.217Z,1.75
2024-03-12T05:14:19.905Z,1.90
2024-03-12T05:18:21.419Z,1.73
2024-03-12T05:22:23.480Z,1.90
2024-03-12T05:26:29.866Z,1.90
2024-03-12T05:34:40.619Z,1.83
2024-03-12T05:38:56.578Z,1.77
2024-03-12T05:43:16.811Z,1.45
2024-03-12T05:47:36.951Z,1.45
2024-03-12T05:51:39.193Z,1.90
2024-03-12T05:55:42.637Z,1.73
2024-03-12T05:59:44.117Z,1.42
2024-03-12T06:03:45.762Z,1.60
2024-03-12T06:07:49.602Z,1.42
2024-03-12T06:11:51.137Z,1.45
2024-03-12T06:15:52.673Z,1.80
2024-03-12T06:19:54.325Z,2.22
2024-03-12T06:23:55.888Z,1.85
2024-03-12T06:28:06.241Z,1.58
2024-03-12T06:32:08.019Z,1.55
2024-03-12T06:36:13.798Z,1.20
2024-03-12T06:40:18.288Z,1.77
2024-03-12T06:44:23.339Z,1.33
2024-03-12T06:48:24.824Z,1.95
2024-03-12T06:52:27.846Z,2.10
2024-03-12T06:56:30.121Z,2.05
2024-03-12T07:00:38.841Z,1.40
2024-03-12T07:04:49.458Z,1.73
2024-03-12T07:08:52.123Z,1.77
2024-03-12T07:12:55.033Z,2.25
2024-03-12T07:16:56.871Z,1.65
2024-03-12T07:20:58.344Z,1.55
2024-03-12T07:25:00.534Z,2.20
2024-03-12T07:29:07.893Z,1.88
2024-03-12T07:33:09.507Z,1.95
2024-03-12T07:37:11.526Z,1.90
2024-03-12T07:41:13.130Z,1.88
2024-03-12T07:45:16.113Z,1.63
2024-03-12T07:49:22.522Z,1.55
2024-03-12T07:53:24.108Z,1.52
2024-03-12T07:57:25.822Z,1.80
2024-03-12T08:01:27.770Z,1.73
2024-03-12T08:05:32.054Z,1.80
2024-03-12T08:09:35.410Z,1.60
2024-03-12T08:13:36.944Z,1.60
2024-03-12T08:17:39.372Z,1.80
2024-03-12T08:21:41.199Z,1.50
2024-03-12T08:25:54.767Z,1.63
2024-03-12T08:29:58.699Z,1.50
2024-03-12T08:34:00.402Z,2.10
2024-03-12T08:38:05.661Z,1.50
2024-03-12T08:42:10.495Z,1.52
2024-03-12T08:46:12.452Z,1.30
2024-03-12T08:50:14.295Z,1.40
2024-03-12T08:54:16.035Z,1.42
2024-03-12T08:58:18.520Z,1.85
2024-03-12T09:02:20.023Z,1.60
2024-03-12T09:06:21.822Z,1.98
2024-03-12T09:10:23.811Z,1.77
2024-03-12T09:14:25.860Z,1.42
2024-03-12T09:18:27.858Z,1.75
2024-03-12T09:22:29.652Z,1.42
2024-03-12T09:26:31.286Z,2.35
2024-03-12T09:30:35.294Z,2.40
2024-03-12T09:34:40.439Z,1.80
2024-03-12T09:38:43.276Z,2.13
2024-03-12T09:42:48.398Z,1.50
2024-03-12T09:46:50.409Z,1.83
2024-03-12T09:50:51.983Z,1.70
2024-03-12T09:54:54.462Z,2.28
2024-03-12T09:58:57.999Z,2.45
2024-03-12T10:03:00.877Z,2.00
2024-03-12T10:07:03.103Z,2.05
2024-03-12T10:11:09.907Z,1.95
2024-03-12T10:15:13.119Z,2.30
2024-03-12T10:19:19.583Z,2.20
2024-03-12T10:23:31.629Z,1.70
2024-03-12T10:27:33.171Z,2.17
2024-03-12T10:31:37.261Z,2.08
2024-03-12T10:35:42.471Z,1.98
2024-03-12T10:39:45.350Z,1.75
2024-03-12T10:43:56.414Z,1.58
2024-03-12T10:47:59.582Z,2.70
2024-03-12T10:52:02.302Z,2.45
2024-03-12T10:56:11.543Z,4.00
2024-03-12T11:00:21.809Z,4.07
2024-03-12T11:04:24.162Z,4.07
2024-03-12T11:08:27.083Z,4.40
2024-03-12T11:12:28.654Z,5.00
2024-03-12T11:16:35.524Z,4.72
2024-03-12T11:20:43.126Z,5.18
2024-03-12T11:24:51.153Z,6.55
2024-03-12T11:28:52.822Z,5.57
2024-03-12T11:32:54.436Z,6.13
2024-03-12T11:37:13.984Z,7.38
2024-03-12T11:41:17.646Z,6.78
2024-03-12T11:45:48.212Z,5.65
2024-03-12T11:49:51.258Z,5.82
2024-03-12T11:53:53.555Z,6.00
2024-03-12T11:57:56.105Z,5.40
2024-03-12T12:02:00.144Z,4.97
2024-03-12T12:06:03.781Z,5.72
2024-03-12T12:10:05.315Z,5.32
2024-03-12T12:14:09.332Z,6.45
2024-03-12T12:18:11.416Z,6.38
2024-03-12T12:22:14.218Z,6.80
2024-03-12T12:26:21.412Z,5.75
2024-03-12T12:30:23.298Z,5.78
2024-03-12T12:34:29.845Z,5.82
2024-03-12T12:38:33.364Z,6.75
2024-03-12T12:42:39.675Z,6.70
2024-03-12T12:46:41.401Z,7.13
2024-03-12T12:50:44.382Z,6.40
2024-03-12T12:54:49.851Z,5.43
2024-03-12T12:58:52.750Z,5.60
2024-03-12T13:02:54.659Z,6.30
2024-03-12T13:06:58.050Z,5.63
2024-03-12T13:11:07.122Z,5.90
2024-03-12T13:15:29.558Z,6.38
2024-03-12T13:19:32.007Z,5.53
2024-03-12T13:23:36.113Z,5.40
2024-03-12T13:27:37.715Z,5.18
2024-03-12T13:31:41.226Z,4.60
2024-03-12T13:35:43.376Z,5.38
2024-03-12T13:39:44.986Z,4.68
2024-03-12T13:43:46.571Z,3.58
2024-03-12T13:47:48.155Z,4.15
2024-03-12T13:51:49.789Z,4.38
2024-03-12T13:55:51.242Z,4.80
2024-03-12T13:59:52.770Z,5.13
2024-03-12T14:03:55.665Z,4.20
2024-03-12T14:07:57.432Z,4.55
2024-03-12T14:11:59.914Z,5.90
2024-03-12T14:16:02.914Z,6.05
2024-03-12T14:20:11.966Z,5.38
2024-03-12T14:24:13.450Z,5.20
2024-03-12T14:28:15.455Z,5.20
2024-03-12T14:32:17.275Z,5.55
2024-03-12T14:36:18.830Z,6.20
2024-03-12T14:40:21.127Z,5.07
2024-03-12T14:44:23.052Z,6.72
2024-03-12T14:48:24.643Z,3.90
2024-03-12T14:52:26.772Z,3.80
2024-03-12T14:56:28.430Z,4.85
2024-03-12T15:00:30.432Z,4.30
2024-03-12T15:04:37.467Z,4.00
2024-03-12T15:08:39.628Z,3.88
2024-03-12T15:12:41.947Z,4.75
2024-03-12T15:16:43.580Z,3.63
2024-03-12T15:20:47.330Z,3.83
2024-03-12T15:24:49.382Z,4.50
2024-03-12T15:28:50.928Z,4.30
2024-03-12T15:32:52.946Z,4.05
2024-03-12T15:36:55.258Z,4.10
2024-03-12T15:40:58.457Z,3.90
2024-03-12T15:45:00.059Z,3.53
2024-03-12T15:49:03.582Z,3.97
2024-03-12T15:53:05.139Z,4.18
2024-03-12T15:57:09.145Z,4.05
2024-03-12T16:01:14.173Z,3.85
2024-03-12T16:05:16.115Z,3.03
2024-03-12T16:09:18.236Z,3.15
2024-03-12T16:13:19.904Z,3.53
2024-03-12T16:17:21.541Z,3.47
2024-03-12T16:21:23.475Z,3.55
2024-03-12T16:25:26.064Z,3.55
2024-03-12T16:29:29.781Z,3.00
2024-03-12T16:33:31.381Z,3.10
2024-03-12T16:37:32.918Z,3.30
2024-03-12T16:41:35.375Z,2.83
2024-03-12T16:45:36.947Z,3.75
2024-03-12T16:49:38.556Z,4.10
2024-03-12T16:53:40.140Z,4.38
2024-03-12T16:57:42.075Z,3.90
2024-03-12T17:01:44.996Z,4.90
2024-03-12T17:05:47.070Z,5.00
2024-03-12T17:09:48.863Z,4.75
2024-03-12T17:13:50.927Z,5.15
2024-03-12T17:17:52.946Z,5.32
2024-03-12T17:21:55.094Z,5.20
2024-03-12T17:25:56.969Z,5.78
2024-03-12T17:30:00.823Z,6.40
2024-03-12T17:34:05.733Z,5.60
2024-03-12T17:38:13.951Z,5.43
2024-03-12T17:42:21.197Z,6.07
2024-03-12T17:46:24.353Z,5.05
2024-03-12T17:50:31.513Z,6.35
2024-03-12T17:54:33.367Z,5.88
2024-03-12T17:58:38.539Z,5.75
2024-03-12T18:02:40.365Z,6.95
2024-03-12T18:06:43.340Z,5.78
2024-03-12T18:10:48.569Z,6.10
2024-03-12T18:14:50.113Z,6.38
2024-03-12T18:18:51.688Z,5.68
2024-03-12T18:22:54.301Z,6.97
2024-03-12T18:26:58.320Z,6.70
2024-03-12T18:31:00.653Z,6.13
2024-03-12T18:35:02.254Z,6.30
2024-03-12T18:39:04.946Z,5.78
2024-03-12T18:43:08.470Z,6.50
2024-03-12T18:47:10.694Z,6.50
2024-03-12T18:51:12.383Z,6.40
2024-03-12T18:55:14.653Z,6.05
2024-03-12T18:59:16.476Z,6.82
2024-03-12T19:03:20.977Z,6.45
2024-03-12T19:07:23.665Z,5.30
2024-03-12T19:11:25.861Z,5.70
2024-03-12T19:15:36.680Z,5.80
2024-03-12T19:19:39.262Z,6.32
2024-03-12T19:23:40.749Z,6.63
2024-03-12T19:27:46.935Z,6.93
2024-03-12T19:35:51.864Z,6.70
2024-03-12T19:39:54.280Z,7.97
2024-03-12T19:43:57.658Z,7.95
2024-03-12T19:47:59.783Z,6.43
2024-03-12T19:52:02.300Z,8.00
2024-03-12T19:56:04.796Z,7.47
2024-03-12T20:00:13.504Z,8.45
2024-03-12T20:04:15.223Z,8.10
2024-03-12T20:08:16.852Z,8.02
2024-03-12T20:12:18.345Z,7.60
2024-03-12T20:16:20.279Z,7.45
2024-03-12T20:20:23.858Z,7.35
2024-03-12T20:24:25.733Z,7.38
2024-03-12T20:28:27.300Z,7.45
2024-03-12T20:32:28.859Z,7.80
2024-03-12T20:36:33.110Z,6.47
2024-03-12T20:40:34.669Z,6.78
2024-03-12T20:44:37.425Z,6.38
2024-03-12T20:48:40.704Z,6.28
2024-03-12T20:52:42.339Z,6.88
2024-03-12T20:56:46.773Z,6.25
2024-03-12T21:00:48.357Z,6.32
2024-03-12T21:04:49.915Z,6.63
2024-03-12T21:08:52.162Z,7.82
2024-03-12T21:12:53.763Z,6.90
2024-03-12T21:16:55.722Z,7.30
2024-03-12T21:20:57.253Z,7.30
2024-03-12T21:25:00.640Z,7.03
2024-03-12T21:29:02.488Z,6.68
2024-03-12T21:33:04.934Z,6.68
2024-03-12T21:37:07.746Z,6.82
2024-03-12T21:41:13.153Z,7.47
2024-03-12T21:45:16.708Z,6.47
2024-03-12T21:49:18.597Z,6.93
2024-03-12T21:53:20.838Z,6.90
2024-03-12T21:57:23.019Z,6.70
2024-03-12T22:01:25.470Z,6.88
2024-03-12T22:05:29.526Z,6.13
2024-03-12T22:09:31.999Z,6.50
2024-03-12T22:13:39.699Z,7.28
2024-03-12T22:17:46.566Z,6.40
2024-03-12T22:21:49.222Z,6.72
2024-03-12T22:25:50.914Z,6.85
2024-03-12T22:29:52.396Z,6.13
2024-03-12T22:33:55.797Z,7.38
2024-03-12T22:37:57.948Z,7.05
2024-03-12T22:41:59.775Z,6.60
2024-03-12T22:46:11.913Z,7.30
2024-03-12T22:50:15.327Z,6.38
2024-03-12T22:54:19.221Z,6.22
2024-03-12T22:58:21.056Z,7.40
2024-03-12T23:02:23.362Z,7.90
2024-03-12T23:06:26.256Z,7.57
2024-03-12T23:10:27.782Z,7.57
2024-03-12T23:14:30.672Z,7.30
2024-03-12T23:18:32.164Z,7.32
2024-03-12T23:22:34.168Z,7.28
2024-03-12T23:26:35.752Z,7.07
2024-03-12T23:30:37.276Z,7.35
2024-03-12T23:34:38.781Z,7.72
2024-03-12T23:38:40.886Z,7.30
2024-03-12T23:42:42.484Z,7.20
2024-03-12T23:46:43.936Z,8.00
2024-03-12T23:50:45.590Z,8.70
2024-03-12T23:54:47.130Z,8.70
2024-03-12T23:58:49.215Z,7.30
